createdAt,value
2023-05-19T00:01:32.240Z,7.28
2023-05-19T00:04:03.035Z,6.53
2023-05-19T00:06:34.304Z,6.53
2023-05-19T00:09:06.314Z,6.87
2023-05-19T00:11:36.291Z,6.65
2023-05-19T00:14:05.094Z,6.50
2023-05-19T00:16:32.374Z,6.72
2023-05-19T00:19:02.917Z,7.05
2023-05-19T00:21:31.503Z,6.60
2023-05-19T00:23:59.081Z,7.00
2023-05-19T00:26:27.325Z,7.25
2023-05-19T00:28:55.393Z,6.87
2023-05-19T00:31:22.331Z,7.45
2023-05-19T00:33:49.267Z,8.10
2023-05-19T00:36:16.373Z,7.15
2023-05-19T00:38:43.457Z,6.78
2023-05-19T00:41:14.014Z,6.53
2023-05-19T00:43:41.239Z,6.85
2023-05-19T00:46:08.201Z,6.62
2023-05-19T00:48:44.896Z,7.05
2023-05-19T00:51:14.910Z,7.12
2023-05-19T00:53:42.006Z,7.25
2023-05-19T00:56:08.913Z,6.65
2023-05-19T00:58:36.566Z,7.20
2023-05-19T01:01:04.761Z,8.00
2023-05-19T01:03:35.207Z,7.18
2023-05-19T01:06:06.092Z,7.00
2023-05-19T01:08:37.625Z,7.75
2023-05-19T01:11:06.924Z,6.62
2023-05-19T01:13:35.095Z,7.28
2023-05-19T01:16:13.249Z,6.75
2023-05-19T01:18:47.785Z,7.22
2023-05-19T01:21:44.687Z,7.15
2023-05-19T01:24:47.028Z,6.87
2023-05-19T01:27:16.954Z,7.50
2023-05-19T01:30:16.364Z,6.62
2023-05-19T01:32:44.331Z,7.87
2023-05-19T01:35:13.204Z,7.50
2023-05-19T01:37:41.528Z,7.72
2023-05-19T01:40:09.264Z,7.37
2023-05-19T01:42:40.109Z,7.22
2023-05-19T01:45:11.766Z,7.25
2023-05-19T01:47:42.473Z,7.35
2023-05-19T01:50:09.930Z,7.57
2023-05-19T01:52:37.029Z,7.68
2023-05-19T01:55:04.189Z,7.93
2023-05-19T01:57:37.743Z,7.62
2023-05-19T02:00:23.420Z,6.95
2023-05-19T02:03:05.660Z,7.75
2023-05-19T02:05:44.460Z,7.15
2023-05-19T02:08:14.668Z,7.62
2023-05-19T02:10:43.801Z,7.75
2023-05-19T02:13:11.747Z,7.80
2023-05-19T02:15:42.379Z,7.50
2023-05-19T02:18:12.842Z,7.72
2023-05-19T02:20:40.243Z,7.43
2023-05-19T02:23:07.510Z,7.53
2023-05-19T02:25:34.563Z,7.43
2023-05-19T02:28:01.518Z,7.37
2023-05-19T02:30:28.511Z,7.05
2023-05-19T02:32:55.630Z,7.20
2023-05-19T02:35:25.569Z,7.68
2023-05-19T02:37:52.665Z,7.18
2023-05-19T02:40:19.889Z,7.45
2023-05-19T02:42:46.821Z,7.60
2023-05-19T02:45:14.839Z,7.50
2023-05-19T02:47:41.832Z,8.23
2023-05-19T02:50:19.545Z,6.97
2023-05-19T02:52:46.446Z,7.28
2023-05-19T02:55:17.224Z,8.68
2023-05-19T02:57:44.365Z,7.90
2023-05-19T03:00:12.120Z,8.00
2023-05-19T03:02:42.137Z,7.80
2023-05-19T03:05:10.421Z,7.87
2023-05-19T03:07:37.449Z,7.53
2023-05-19T03:10:08.878Z,8.20
2023-05-19T03:12:35.824Z,7.40
2023-05-19T03:15:02.886Z,8.00
2023-05-19T03:17:33.934Z,6.95
2023-05-19T03:20:01.720Z,8.48
2023-05-19T03:22:28.658Z,8.20
2023-05-19T03:24:56.064Z,7.10
2023-05-19T03:27:22.970Z,7.97
2023-05-19T03:29:50.024Z,7.50
2023-05-19T03:32:17.078Z,8.48
2023-05-19T03:34:44.036Z,8.98
2023-05-19T03:37:11.117Z,7.18
2023-05-19T03:39:38.174Z,7.30
2023-05-19T03:42:05.346Z,7.37
2023-05-19T03:44:32.323Z,7.65
2023-05-19T03:46:59.235Z,7.10
2023-05-19T03:49:32.429Z,7.15
2023-05-19T03:51:59.484Z,8.02
2023-05-19T03:54:26.376Z,7.43
2023-05-19T03:56:53.330Z,7.25
2023-05-19T03:59:21.412Z,7.30
2023-05-19T04:01:48.939Z,7.00
2023-05-19T04:04:15.967Z,7.18
2023-05-19T04:06:42.977Z,7.65
2023-05-19T04:09:14.172Z,7.03
2023-05-19T04:11:41.586Z,7.68
2023-05-19T04:14:08.795Z,7.22
2023-05-19T04:16:36.115Z,7.85
2023-05-19T04:19:03.111Z,7.05
2023-05-19T04:21:30.047Z,7.50
2023-05-19T04:23:59.388Z,7.00
2023-05-19T04:26:27.035Z,6.62
2023-05-19T04:28:56.765Z,7.50
2023-05-19T04:31:24.377Z,7.57
2023-05-19T04:33:53.661Z,6.65
2023-05-19T04:36:21.887Z,7.47
2023-05-19T04:38:55.057Z,6.80
2023-05-19T04:41:22.051Z,6.97
2023-05-19T04:43:50.324Z,7.30
2023-05-19T04:46:17.286Z,7.20
2023-05-19T04:48:44.259Z,7.18
2023-05-19T04:51:14.470Z,7.43
2023-05-19T04:53:42.498Z,7.20
2023-05-19T04:56:09.903Z,7.40
2023-05-19T04:58:39.690Z,7.32
2023-05-19T05:01:09.752Z,7.35
2023-05-19T05:03:36.917Z,7.95
2023-05-19T05:06:04.725Z,7.43
2023-05-19T05:08:51.164Z,7.80
2023-05-19T05:11:21.474Z,7.37
2023-05-19T05:13:48.788Z,6.50
2023-05-19T05:16:17.048Z,7.28
2023-05-19T05:18:57.749Z,7.47
2023-05-19T05:21:25.090Z,7.57
2023-05-19T05:23:52.829Z,6.70
2023-05-19T05:26:21.564Z,6.87
2023-05-19T05:29:12.402Z,6.90
2023-05-19T05:31:39.322Z,7.35
2023-05-19T05:34:06.212Z,6.87
2023-05-19T05:36:35.103Z,7.45
2023-05-19T05:39:38.164Z,7.95
2023-05-19T05:42:05.258Z,7.55
2023-05-19T05:44:32.204Z,7.28
2023-05-19T05:46:59.381Z,7.43
2023-05-19T05:49:27.597Z,6.97
2023-05-19T05:54:28.966Z,9.20
2023-05-19T05:56:56.084Z,8.20
2023-05-19T05:59:36.939Z,8.57
2023-05-19T06:02:09.447Z,8.55
2023-05-19T06:04:43.012Z,7.95
2023-05-19T06:07:10.470Z,9.52
2023-05-19T06:09:39.414Z,9.27
2023-05-19T06:12:10.986Z,10.55
2023-05-19T06:14:38.480Z,9.55
2023-05-19T06:17:05.567Z,10.30
2023-05-19T06:19:32.606Z,8.75
2023-05-19T06:21:59.498Z,9.05
2023-05-19T06:24:27.111Z,8.60
2023-05-19T06:26:54.006Z,8.75
2023-05-19T06:29:20.872Z,9.40
2023-05-19T06:31:47.972Z,9.55
2023-05-19T06:34:17.800Z,9.50
2023-05-19T06:36:44.777Z,10.10
2023-05-19T06:39:11.679Z,9.50
2023-05-19T06:41:38.559Z,10.05
2023-05-19T06:44:08.157Z,10.57
2023-05-19T06:46:35.268Z,11.02
2023-05-19T06:49:02.215Z,10.88
2023-05-19T06:51:53.737Z,10.88
2023-05-19T06:54:24.402Z,10.25
2023-05-19T06:57:05.194Z,10.73
2023-05-19T06:59:33.119Z,10.93
2023-05-19T07:02:00.492Z,10.77
2023-05-19T07:04:27.638Z,9.70
2023-05-19T07:06:55.215Z,9.50
2023-05-19T07:09:23.175Z,11.23
2023-05-19T07:11:50.089Z,9.65
2023-05-19T07:14:17.019Z,9.52
2023-05-19T07:16:44.065Z,10.43
2023-05-19T07:19:12.139Z,9.18
2023-05-19T07:21:39.046Z,9.57
2023-05-19T07:24:06.369Z,9.13
2023-05-19T07:26:33.312Z,9.32
2023-05-19T07:29:01.288Z,9.93
2023-05-19T07:31:28.264Z,8.88
2023-05-19T07:33:55.174Z,8.60
2023-05-19T07:36:22.734Z,10.00
2023-05-19T07:38:49.930Z,9.63
2023-05-19T07:41:16.856Z,8.98
2023-05-19T07:43:43.847Z,9.68
2023-05-19T07:46:13.290Z,8.30
2023-05-19T07:48:51.417Z,8.23
2023-05-19T07:51:19.580Z,8.25
2023-05-19T07:53:47.305Z,8.40
2023-05-19T07:56:14.376Z,8.43
2023-05-19T07:58:41.723Z,7.95
2023-05-19T08:01:08.636Z,7.97
2023-05-19T08:03:35.705Z,7.50
2023-05-19T08:06:03.125Z,7.60
2023-05-19T08:08:30.166Z,7.40
2023-05-19T08:10:57.097Z,7.68
2023-05-19T08:13:24.000Z,6.90
2023-05-19T08:15:51.131Z,7.53
2023-05-19T08:18:18.066Z,7.28
2023-05-19T08:20:46.457Z,7.72
2023-05-19T08:23:13.463Z,6.22
2023-05-19T08:25:40.899Z,6.45
2023-05-19T08:28:08.783Z,6.95
2023-05-19T08:30:35.776Z,6.82
2023-05-19T08:33:02.934Z,6.82
2023-05-19T08:35:29.844Z,6.82
2023-05-19T08:37:56.922Z,6.97
2023-05-19T08:40:23.993Z,6.35
2023-05-19T08:42:51.476Z,5.68
2023-05-19T08:45:18.377Z,5.82
2023-05-19T08:47:48.240Z,6.28
2023-05-19T08:50:23.207Z,5.78
2023-05-19T08:53:01.720Z,5.62
2023-05-19T08:55:34.279Z,5.03
2023-05-19T08:58:02.371Z,5.25
2023-05-19T09:00:30.474Z,4.60
2023-05-19T09:03:06.054Z,5.07
2023-05-19T09:05:44.595Z,5.20
2023-05-19T09:08:11.696Z,5.07
2023-05-19T09:10:38.640Z,5.57
2023-05-19T09:13:05.572Z,5.93
2023-05-19T09:15:34.492Z,5.32
2023-05-19T09:18:14.560Z,5.12
2023-05-19T09:20:43.322Z,5.87
2023-05-19T09:23:15.247Z,5.50
2023-05-19T09:25:49.971Z,5.28
2023-05-19T09:28:33.340Z,4.93
2023-05-19T09:31:01.326Z,5.30
2023-05-19T09:33:28.952Z,5.15
2023-05-19T09:35:57.041Z,5.12
2023-05-19T09:38:27.870Z,5.07
2023-05-19T09:41:09.173Z,4.60
2023-05-19T09:43:36.806Z,4.68
2023-05-19T09:46:14.477Z,4.70
2023-05-19T09:48:44.140Z,4.85
2023-05-19T09:51:11.912Z,4.78
2023-05-19T09:53:42.170Z,4.90
2023-05-19T09:56:10.202Z,5.53
2023-05-19T09:58:39.263Z,4.80
2023-05-19T10:01:06.825Z,5.10
2023-05-19T10:03:34.476Z,5.45
2023-05-19T10:06:02.066Z,4.93
2023-05-19T10:08:37.459Z,5.30
2023-05-19T10:11:06.535Z,5.05
2023-05-19T10:13:36.190Z,4.95
2023-05-19T10:16:03.810Z,4.95
2023-05-19T10:18:31.329Z,4.55
2023-05-19T10:20:59.353Z,5.12
2023-05-19T10:23:26.773Z,4.65
2023-05-19T10:25:57.128Z,4.90
2023-05-19T10:28:35.404Z,4.82
2023-05-19T10:31:03.074Z,5.20
2023-05-19T10:33:43.336Z,5.72
2023-05-19T10:36:31.466Z,5.50
2023-05-19T10:39:17.389Z,5.22
2023-05-19T10:41:56.463Z,5.32
2023-05-19T10:44:35.529Z,5.20
2023-05-19T10:47:02.732Z,5.05
2023-05-19T10:49:35.751Z,4.72
2023-05-19T10:52:02.711Z,5.47
2023-05-19T10:54:47.950Z,5.03
2023-05-19T10:57:18.326Z,4.37
2023-05-19T10:59:45.488Z,4.68
2023-05-19T11:02:40.172Z,4.72
2023-05-19T11:05:15.190Z,5.30
2023-05-19T11:07:44.422Z,5.32
2023-05-19T11:10:11.889Z,5.10
2023-05-19T11:12:44.101Z,6.20
2023-05-19T11:15:15.347Z,5.15
2023-05-19T11:17:43.455Z,4.50
2023-05-19T11:20:22.366Z,5.65
2023-05-19T11:23:22.055Z,5.70
2023-05-19T11:25:51.505Z,6.45
2023-05-19T11:28:19.980Z,5.72
2023-05-19T11:30:50.811Z,5.50
2023-05-19T11:33:20.837Z,5.85
2023-05-19T11:35:49.948Z,5.60
2023-05-19T11:38:21.217Z,5.75
2023-05-19T11:40:49.984Z,5.97
2023-05-19T11:43:17.258Z,5.90
2023-05-19T11:45:46.024Z,5.50
2023-05-19T11:48:14.027Z,5.80
2023-05-19T11:50:41.830Z,5.20
2023-05-19T11:53:08.753Z,5.37
2023-05-19T11:55:35.609Z,5.20
2023-05-19T11:58:05.438Z,4.78
2023-05-19T12:00:42.874Z,4.70
2023-05-19T12:05:42.879Z,4.57
2023-05-19T12:08:11.779Z,4.40
2023-05-19T12:10:41.882Z,4.60
2023-05-19T12:13:12.080Z,4.47
2023-05-19T12:15:39.550Z,4.60
2023-05-19T12:18:12.199Z,4.57
2023-05-19T12:20:44.136Z,4.70
2023-05-19T12:23:16.965Z,4.82
2023-05-19T12:25:44.440Z,3.92
2023-05-19T12:28:16.570Z,3.80
2023-05-19T12:30:55.293Z,4.18
2023-05-19T12:33:27.730Z,3.95
2023-05-19T12:36:00.627Z,4.10
2023-05-19T12:38:32.862Z,3.97
2023-05-19T12:41:00.357Z,3.95
2023-05-19T12:43:27.780Z,3.70
2023-05-19T12:45:54.721Z,4.50
2023-05-19T12:48:29.756Z,3.62
2023-05-19T12:50:56.841Z,4.03
2023-05-19T12:53:26.826Z,4.30
2023-05-19T12:55:54.075Z,4.00
2023-05-19T12:58:23.080Z,3.85
2023-05-19T13:00:50.766Z,3.67
2023-05-19T13:03:22.348Z,3.70
2023-05-19T13:05:51.192Z,3.60
2023-05-19T13:08:21.794Z,3.78
2023-05-19T13:10:49.856Z,3.40
2023-05-19T13:13:17.040Z,3.60
2023-05-19T13:15:45.523Z,3.72
2023-05-19T13:18:13.527Z,4.18
2023-05-19T13:20:41.802Z,3.45
2023-05-19T13:23:11.204Z,3.33
2023-05-19T13:25:38.194Z,3.53
2023-05-19T13:28:06.039Z,3.65
2023-05-19T13:30:34.665Z,3.47
2023-05-19T13:33:03.055Z,3.53
2023-05-19T13:35:31.535Z,3.58
2023-05-19T13:37:58.603Z,3.25
2023-05-19T13:40:28.320Z,3.53
2023-05-19T13:42:55.246Z,3.25
2023-05-19T13:45:22.146Z,3.80
2023-05-19T13:47:49.425Z,3.40
2023-05-19T13:50:18.957Z,3.10
2023-05-19T13:52:45.818Z,3.40
2023-05-19T13:55:12.715Z,3.75
2023-05-19T13:57:40.297Z,3.20
2023-05-19T14:00:08.701Z,3.40
2023-05-19T14:02:36.429Z,3.30
2023-05-19T14:05:03.708Z,3.20
2023-05-19T14:07:30.786Z,2.92
2023-05-19T14:09:57.717Z,3.33
2023-05-19T14:12:35.368Z,3.00
2023-05-19T14:15:03.965Z,2.92
2023-05-19T14:17:30.908Z,3.30
2023-05-19T14:19:57.864Z,3.17
2023-05-19T14:22:24.760Z,3.22
2023-05-19T14:24:51.650Z,3.40
2023-05-19T14:27:18.539Z,3.37
2023-05-19T14:29:45.919Z,3.60
2023-05-19T14:32:13.866Z,3.30
2023-05-19T14:34:40.772Z,3.80
2023-05-19T14:37:07.714Z,3.35
2023-05-19T14:39:34.592Z,3.90
2023-05-19T14:42:01.646Z,3.55
2023-05-19T14:44:33.222Z,3.90
2023-05-19T14:47:01.984Z,3.60
2023-05-19T14:49:28.916Z,4.25
2023-05-19T14:51:55.862Z,3.95
2023-05-19T14:54:23.011Z,3.97
2023-05-19T14:56:49.910Z,4.30
2023-05-19T14:59:16.768Z,4.40
2023-05-19T15:01:43.810Z,3.90
2023-05-19T15:04:10.851Z,3.85
2023-05-19T15:06:37.731Z,4.32
2023-05-19T15:09:04.650Z,3.80
2023-05-19T15:11:31.590Z,3.92
2023-05-19T15:13:58.517Z,3.72
2023-05-19T15:16:25.776Z,4.05
2023-05-19T15:18:52.775Z,4.03
2023-05-19T15:21:19.723Z,4.12
2023-05-19T15:23:46.605Z,4.25
2023-05-19T15:26:13.634Z,3.90
2023-05-19T15:28:40.829Z,4.50
2023-05-19T15:31:07.859Z,4.00
2023-05-19T15:33:35.373Z,4.25
2023-05-19T15:36:02.222Z,3.95
2023-05-19T15:38:30.084Z,4.53
2023-05-19T15:40:57.545Z,4.50
2023-05-19T15:43:25.415Z,4.60
2023-05-19T15:45:55.101Z,4.30
2023-05-19T15:48:22.099Z,4.57
2023-05-19T15:50:49.052Z,3.92
2023-05-19T15:53:16.015Z,4.28
2023-05-19T15:55:42.927Z,4.07
2023-05-19T15:58:09.861Z,3.90
2023-05-19T16:00:37.030Z,4.97
2023-05-19T16:03:03.973Z,4.15
2023-05-19T16:05:31.041Z,3.90
2023-05-19T16:07:57.992Z,4.93
2023-05-19T16:10:24.896Z,3.90
2023-05-19T16:12:51.821Z,4.43
2023-05-19T16:15:18.839Z,4.43
2023-05-19T16:17:45.838Z,4.37
2023-05-19T16:20:13.025Z,4.05
2023-05-19T16:22:39.903Z,3.70
2023-05-19T16:25:07.637Z,3.72
2023-05-19T16:27:34.629Z,4.45
2023-05-19T16:30:02.680Z,4.07
2023-05-19T16:32:29.662Z,3.97
2023-05-19T16:34:56.638Z,3.92
2023-05-19T16:37:23.529Z,4.07
2023-05-19T16:39:50.490Z,4.07
2023-05-19T16:42:17.924Z,3.78
2023-05-19T16:44:44.830Z,4.10
2023-05-19T16:47:11.725Z,3.92
2023-05-19T16:49:40.539Z,4.28
2023-05-19T16:52:08.114Z,3.87
2023-05-19T16:54:35.060Z,3.58
2023-05-19T16:57:02.510Z,3.67
2023-05-19T16:59:29.503Z,4.20
2023-05-19T17:01:57.028Z,4.20
2023-05-19T17:04:24.254Z,4.35
2023-05-19T17:06:51.226Z,4.30
2023-05-19T17:09:18.326Z,4.12
2023-05-19T17:11:45.237Z,4.05
2023-05-19T17:14:12.078Z,3.92
2023-05-19T17:16:39.069Z,4.20
2023-05-19T17:19:06.004Z,4.22
2023-05-19T17:21:33.825Z,4.15
2023-05-19T17:24:01.163Z,4.53
2023-05-19T17:26:28.078Z,4.28
2023-05-19T17:28:55.321Z,4.12
2023-05-19T17:31:22.293Z,5.03
2023-05-19T17:33:49.232Z,4.35
2023-05-19T17:36:16.169Z,4.37
2023-05-19T17:38:43.114Z,4.28
2023-05-19T17:41:10.215Z,4.70
2023-05-19T17:43:38.149Z,4.53
2023-05-19T17:46:05.685Z,4.57
2023-05-19T17:48:32.901Z,4.70
2023-05-19T17:51:00.238Z,4.72
2023-05-19T17:53:27.523Z,5.05
2023-05-19T17:55:59.571Z,5.10
2023-05-19T17:58:27.022Z,4.30
2023-05-19T18:00:54.543Z,4.70
2023-05-19T18:03:25.021Z,4.65
2023-05-19T18:05:52.241Z,5.25
2023-05-19T18:08:19.525Z,5.28
2023-05-19T18:10:48.640Z,4.57
2023-05-19T18:13:15.563Z,5.28
2023-05-19T18:15:42.587Z,4.72
2023-05-19T18:18:11.027Z,4.45
2023-05-19T18:20:38.896Z,4.62
2023-05-19T18:23:06.135Z,5.50
2023-05-19T18:25:33.104Z,5.25
2023-05-19T18:28:00.015Z,5.00
2023-05-19T18:30:26.920Z,5.22
2023-05-19T18:32:53.909Z,5.32
2023-05-19T18:35:23.737Z,4.90
2023-05-19T18:37:50.823Z,5.47
2023-05-19T18:40:17.795Z,5.75
2023-05-19T18:42:44.674Z,6.60
2023-05-19T18:45:11.946Z,6.20
2023-05-19T18:47:38.825Z,5.60
2023-05-19T18:50:07.122Z,6.00
2023-05-19T18:52:34.035Z,6.30
2023-05-19T18:55:01.344Z,6.20
2023-05-19T18:57:28.387Z,6.35
2023-05-19T18:59:55.309Z,5.78
2023-05-19T19:02:22.269Z,6.37
2023-05-19T19:04:49.310Z,6.40
2023-05-19T19:07:16.296Z,6.70
2023-05-19T19:09:43.960Z,6.35
2023-05-19T19:12:11.271Z,8.00
2023-05-19T19:14:38.665Z,6.95
2023-05-19T19:17:05.802Z,6.78
2023-05-19T19:19:32.981Z,7.10
2023-05-19T19:21:59.965Z,7.25
2023-05-19T19:24:28.689Z,7.20
2023-05-19T19:26:55.686Z,6.70
2023-05-19T19:29:22.644Z,7.07
2023-05-19T19:31:49.688Z,6.97
2023-05-19T19:34:19.881Z,7.28
2023-05-19T19:36:47.991Z,7.65
2023-05-19T19:39:14.946Z,8.00
2023-05-19T19:41:41.968Z,7.82
2023-05-19T19:44:09.036Z,7.60
2023-05-19T19:46:36.099Z,7.97
2023-05-19T19:49:03.228Z,8.10
2023-05-19T19:51:30.203Z,8.60
2023-05-19T19:53:57.259Z,8.48
2023-05-19T19:56:25.235Z,9.13
2023-05-19T19:58:52.100Z,8.60
2023-05-19T20:01:23.756Z,8.65
2023-05-19T20:03:50.956Z,8.15
2023-05-19T20:06:17.988Z,8.25
2023-05-19T20:08:44.893Z,7.87
2023-05-19T20:11:11.801Z,7.75
2023-05-19T20:13:38.738Z,7.93
2023-05-19T20:16:05.724Z,8.00
2023-05-19T20:18:32.841Z,8.20
2023-05-19T20:20:59.749Z,8.00
2023-05-19T20:23:26.638Z,8.93
2023-05-19T20:26:10.161Z,8.38
2023-05-19T20:28:38.545Z,8.48
2023-05-19T20:31:06.499Z,8.45
2023-05-19T20:33:33.478Z,7.93
2023-05-19T20:36:00.452Z,6.68
2023-05-19T20:38:27.405Z,6.15
2023-05-19T20:40:54.896Z,6.50
2023-05-19T20:43:21.896Z,5.80
2023-05-19T20:45:48.941Z,6.90
2023-05-19T20:48:16.182Z,7.25
2023-05-19T20:50:43.267Z,7.70
2023-05-19T20:53:10.174Z,7.72
2023-05-19T20:55:38.789Z,7.95
2023-05-19T20:58:08.618Z,8.02
2023-05-19T21:00:36.076Z,7.87
2023-05-19T21:03:03.500Z,8.23
2023-05-19T21:05:30.597Z,8.40
2023-05-19T21:07:57.522Z,8.52
2023-05-19T21:10:24.498Z,7.72
2023-05-19T21:12:51.385Z,7.15
2023-05-19T21:15:18.544Z,7.20
2023-05-19T21:17:45.464Z,7.60
2023-05-19T21:20:12.678Z,7.43
2023-05-19T21:22:40.999Z,7.05
2023-05-19T21:25:08.199Z,7.82
2023-05-19T21:27:36.420Z,7.95
2023-05-19T21:30:03.554Z,8.07
2023-05-19T21:32:30.659Z,7.75
2023-05-19T21:34:57.728Z,7.53
2023-05-19T21:37:24.671Z,7.62
2023-05-19T21:39:51.705Z,8.40
2023-05-19T21:42:18.786Z,8.02
2023-05-19T21:44:45.828Z,8.05
2023-05-19T21:47:12.678Z,7.80
2023-05-19T21:49:40.350Z,8.10
2023-05-19T21:52:07.972Z,8.32
2023-05-19T21:54:35.129Z,7.55
2023-05-19T21:57:02.553Z,7.55
2023-05-19T21:59:29.484Z,7.80
2023-05-19T22:01:56.465Z,8.50
2023-05-19T22:04:23.386Z,8.63
2023-05-19T22:06:50.300Z,9.63
2023-05-19T22:09:17.205Z,9.23
2023-05-19T22:11:44.086Z,9.10
2023-05-19T22:14:11.332Z,9.45
2023-05-19T22:16:38.386Z,9.43
2023-05-19T22:19:05.551Z,8.85
2023-05-19T22:21:32.616Z,8.98
2023-05-19T22:23:59.500Z,9.35
2023-05-19T22:26:27.310Z,7.97
2023-05-19T22:28:54.260Z,8.45
2023-05-19T22:31:21.692Z,8.18
2023-05-19T22:33:48.620Z,7.47
2023-05-19T22:36:16.416Z,8.77
2023-05-19T22:38:43.400Z,8.63
2023-05-19T22:41:10.443Z,9.55
2023-05-19T22:43:37.365Z,10.23
2023-05-19T22:46:04.527Z,9.68
2023-05-19T22:48:31.774Z,9.40
2023-05-19T22:50:58.687Z,8.10
2023-05-19T22:53:25.584Z,6.93
2023-05-19T22:55:52.540Z,7.28
2023-05-19T22:58:19.428Z,7.30
2023-05-19T23:00:46.563Z,8.30
2023-05-19T23:03:13.554Z,8.43
2023-05-19T23:05:40.713Z,7.50
2023-05-19T23:08:07.609Z,9.02
2023-05-19T23:10:34.547Z,7.72
2023-05-19T23:13:01.423Z,7.68
2023-05-19T23:15:28.323Z,6.95
2023-05-19T23:17:55.339Z,7.62
2023-05-19T23:20:22.295Z,7.20
2023-05-19T23:22:49.226Z,7.25
2023-05-19T23:25:16.232Z,6.72
2023-05-19T23:27:43.197Z,6.50
2023-05-19T23:30:10.230Z,7.78
2023-05-19T23:32:37.194Z,8.23
2023-05-19T23:35:14.802Z,7.82
2023-05-19T23:37:41.815Z,7.30
2023-05-19T23:40:09.385Z,6.12
2023-05-19T23:42:36.843Z,6.62
2023-05-19T23:45:04.347Z,6.12
2023-05-19T23:47:31.473Z,5.85
2023-05-19T23:49:58.382Z,6.55
2023-05-19T23:52:25.316Z,6.25
2023-05-19T23:54:52.247Z,6.70
2023-05-19T23:57:19.171Z,6.53
2023-05-19T23:59:46.224Z,6.78
